createdAt,value
2022-11-18T11:07:41.915Z,95346.75
2022-11-18T11:08:52.231Z,95349.53
2022-11-18T11:10:08.435Z,95349.63
2022-11-18T11:11:25.884Z,95348.13
2022-11-18T11:12:31.122Z,95353.22
2022-11-18T11:13:37.966Z,95344.41
2022-11-18T11:14:51.095Z,95354.38
2022-11-18T11:15:55.182Z,95354.84
2022-11-18T11:17:02.571Z,95349.81
2022-11-18T11:18:43.308Z,95354.63
2022-11-18T11:20:10.471Z,95355.16
2022-11-18T11:21:15.484Z,95359.19
2022-11-18T11:22:17.657Z,95350.28
2022-11-18T11:23:23.392Z,95349.50
2022-11-18T12:27:37.041Z,95376.66
2022-11-18T12:28:43.233Z,95384.97
2022-11-18T12:29:44.527Z,95377.41
2022-11-18T12:30:45.931Z,95385.91
2022-11-18T12:31:51.806Z,95379.78
2022-11-18T12:32:56.867Z,95378.56
2022-11-18T12:34:04.932Z,95379.69
2022-11-18T12:35:27.174Z,95382.78
2022-11-18T12:36:36.648Z,95381.88
2022-11-18T12:37:53.295Z,95379.84
2022-11-18T12:38:55.757Z,95373.31
2022-11-18T12:39:58.417Z,95384.28
2022-11-18T12:41:19.844Z,95384.34
2022-11-18T12:43:13.477Z,95383.25
2022-11-18T12:44:23.732Z,95381.66
2022-11-18T12:45:40.284Z,95397.16
2022-11-18T12:46:49.322Z,95395.84
2022-11-18T12:47:53.452Z,95395.56
2022-11-18T12:48:54.995Z,95400.03
2022-11-18T12:49:59.563Z,95398.03
2022-11-18T12:51:16.062Z,95399.59
2022-11-18T12:52:29.814Z,95392.97
2022-11-18T12:53:37.248Z,95390.34
2022-11-18T12:54:45.634Z,95346.44
2022-11-18T12:55:47.077Z,95383.41
2022-11-18T12:56:50.295Z,95377.91
2022-11-18T12:57:52.141Z,95377.25
2022-11-18T12:58:55.838Z,95398.44
2022-11-18T12:59:58.199Z,95377.19
2022-11-18T13:01:12.545Z,95388.81
2022-11-18T13:02:21.235Z,95395.69
2022-11-18T13:03:28.774Z,95380.28
2022-11-18T13:04:30.288Z,95394.28
2022-11-18T13:05:34.508Z,95394.59
2022-11-18T13:06:38.309Z,95393.97
2022-11-18T13:08:09.612Z,95389.97
2022-11-18T13:09:20.625Z,95384.41
2022-11-18T13:10:27.466Z,95398.34
2022-11-18T13:11:50.964Z,95398.91
2022-11-18T13:12:53.946Z,95402.34
2022-11-18T13:14:15.876Z,95393.44
2022-11-18T13:15:36.985Z,95364.69
2022-11-18T13:16:57.973Z,95391.66
2022-11-18T13:18:11.528Z,95396.94
2022-11-18T13:19:25.973Z,95399.25
2022-11-18T13:20:35.545Z,95413.28
2022-11-18T13:21:55.711Z,95390.00
2022-11-18T13:23:21.986Z,95408.16
2022-11-18T13:24:23.971Z,95411.00
2022-11-18T13:25:26.369Z,95411.31
2022-11-18T13:26:33.553Z,95413.34
2022-11-18T13:28:11.797Z,95412.34
2022-11-18T13:29:22.571Z,95419.53
2022-11-18T13:30:24.396Z,95409.09
2022-11-18T13:31:32.134Z,95411.66
2022-11-18T13:32:33.897Z,95405.94
2022-11-18T13:33:38.495Z,95405.56
2022-11-18T13:34:53.280Z,95410.59
2022-11-18T13:35:54.776Z,95391.22
2022-11-18T13:36:59.659Z,95403.50
2022-11-18T13:38:02.492Z,95407.16
2022-11-18T13:39:06.062Z,95395.09
2022-11-18T13:40:23.027Z,95399.28
2022-11-18T13:41:32.455Z,95386.56
2022-11-18T13:42:33.872Z,95397.91
2022-11-18T13:43:35.622Z,95393.84
2022-11-18T13:44:38.238Z,95392.41
2022-11-18T13:45:44.733Z,95391.19
2022-11-18T13:46:51.365Z,95394.72
2022-11-18T13:47:59.422Z,95395.56
2022-11-18T13:49:00.919Z,95377.72
2022-11-18T13:50:05.022Z,95398.19
2022-11-18T13:51:06.741Z,95405.53
2022-11-18T13:52:16.883Z,95399.97
2022-11-18T13:53:19.313Z,95407.22
2022-11-18T13:54:26.792Z,95401.31
2022-11-18T13:55:36.228Z,95406.28
2022-11-18T13:56:40.206Z,95400.97
2022-11-18T13:57:45.855Z,95405.16
2022-11-18T14:00:25.419Z,95411.31
2022-11-18T14:01:32.387Z,95408.59
2022-11-18T14:02:49.896Z,95406.66
2022-11-18T14:03:52.724Z,95417.38
2022-11-18T14:04:57.655Z,95420.13
2022-11-18T14:05:59.356Z,95398.69
2022-11-18T14:07:36.098Z,95423.59
2022-11-18T14:08:39.160Z,95406.28
2022-11-18T14:10:01.055Z,95421.06
2022-11-18T14:11:03.816Z,95420.81
2022-11-18T14:12:28.884Z,95423.88
2022-11-18T14:13:35.359Z,95420.41
2022-11-18T14:14:38.967Z,95394.44
2022-11-18T14:15:43.748Z,95420.50
2022-11-18T14:16:45.715Z,95421.53
2022-11-18T14:18:02.474Z,95429.38
2022-11-18T14:19:05.151Z,95425.47
2022-11-18T14:20:16.931Z,95425.47
2022-11-18T14:21:32.647Z,95420.72
2022-11-18T14:22:34.314Z,95434.66
2022-11-18T14:23:37.151Z,95434.66
2022-11-18T14:24:38.522Z,95436.50
2022-11-18T14:25:44.931Z,95422.81
2022-11-18T14:26:46.383Z,95418.88
2022-11-18T14:27:50.312Z,95428.28
2022-11-18T14:28:57.209Z,95431.09
2022-11-18T14:29:58.986Z,95412.34
2022-11-18T14:31:03.834Z,95427.66
2022-11-18T14:32:11.316Z,95430.44
2022-11-18T14:33:12.756Z,95425.03
2022-11-18T14:34:17.332Z,95427.03
2022-11-18T14:35:18.709Z,95414.66
2022-11-18T14:36:20.285Z,95417.63
2022-11-18T14:37:24.465Z,95435.66
2022-11-18T14:38:52.041Z,95417.91
2022-11-18T14:39:57.658Z,95427.31
2022-11-18T14:41:01.267Z,95432.72
2022-11-18T14:42:02.694Z,95436.81
2022-11-18T14:43:08.836Z,95436.13
2022-11-18T14:44:10.231Z,95417.44
2022-11-18T14:45:11.907Z,95437.25
2022-11-18T14:46:19.454Z,95445.22
2022-11-18T14:47:29.367Z,95441.66
2022-11-18T14:48:36.875Z,95443.63
2022-11-18T14:49:38.253Z,95443.53
2022-11-18T14:50:39.639Z,95442.13
2022-11-18T14:51:41.050Z,95426.56
2022-11-18T14:52:42.385Z,95449.25
2022-11-18T14:53:47.749Z,95441.72
2022-11-18T14:54:49.102Z,95441.34
2022-11-18T14:55:56.469Z,95448.94
2022-11-18T14:57:01.416Z,95452.63
2022-11-18T14:58:02.761Z,95446.03
2022-11-18T14:59:07.732Z,95451.84
2022-11-18T15:00:14.187Z,95448.63
2022-11-18T15:01:15.756Z,95452.47
2022-11-18T15:02:17.903Z,95435.09
2022-11-18T15:03:19.432Z,95449.28
2022-11-18T15:04:22.301Z,95457.97
2022-11-18T15:05:23.834Z,95453.72
2022-11-18T15:06:25.368Z,95437.91
2022-11-18T15:07:26.912Z,95456.53
2022-11-18T15:08:28.466Z,95439.28
2022-11-18T15:09:29.909Z,95455.56
2022-11-18T15:10:31.385Z,95446.19
2022-11-18T15:11:32.787Z,95466.53
2022-11-18T15:12:34.255Z,95462.06
2022-11-18T15:13:35.698Z,95450.91
2022-11-18T15:14:37.033Z,95446.94
2022-11-18T15:15:42.826Z,95458.13
2022-11-18T15:16:44.211Z,95468.59
2022-11-18T15:17:48.441Z,95456.97
2022-11-18T15:18:55.586Z,95463.09
2022-11-18T15:19:57.080Z,95463.34
2022-11-18T15:20:58.804Z,95460.75
2022-11-18T15:22:00.200Z,95466.16
2022-11-18T15:23:01.556Z,95462.97
2022-11-18T15:24:03.485Z,95468.00
2022-11-18T15:25:05.712Z,95472.59
2022-11-18T15:26:38.222Z,95470.41
2022-11-18T15:27:39.742Z,95451.34
2022-11-18T15:28:41.196Z,95466.63
2022-11-18T15:29:42.624Z,95480.31
2022-11-18T15:30:44.052Z,95475.13
2022-11-18T15:31:49.885Z,95467.94
2022-11-18T15:32:51.228Z,95480.84
2022-11-18T15:33:52.742Z,95475.09
2022-11-18T15:34:54.237Z,95467.47
2022-11-18T15:35:55.617Z,95465.19
2022-11-18T15:36:59.856Z,95475.41
2022-11-18T15:38:01.501Z,95479.97
2022-11-18T15:39:03.263Z,95483.66
2022-11-18T15:40:04.875Z,95475.25
2022-11-18T15:41:07.194Z,95478.22
2022-11-18T15:42:11.671Z,95475.50
2022-11-18T15:43:13.061Z,95480.47
2022-11-18T15:44:14.536Z,95478.66
2022-11-18T15:45:16.031Z,95475.44
2022-11-18T15:46:19.351Z,95480.63
2022-11-18T15:47:20.821Z,95465.56
2022-11-18T15:48:22.148Z,95477.56
2022-11-18T15:49:23.547Z,95466.00
2022-11-18T15:50:25.109Z,95468.53
2022-11-18T15:51:28.656Z,95474.78
2022-11-18T15:52:30.057Z,95478.28
2022-11-18T15:53:31.420Z,95472.47
2022-11-18T15:54:32.754Z,95465.75
2022-11-18T15:55:38.313Z,95446.75
2022-11-18T15:56:41.494Z,95460.41
2022-11-18T15:57:42.823Z,95465.53
2022-11-18T15:58:59.730Z,95474.09
2022-11-18T16:00:01.537Z,95472.66
2022-11-18T16:01:03.142Z,95476.94
2022-11-18T16:02:08.041Z,95477.16
2022-11-18T16:03:09.485Z,95459.47
2022-11-18T16:04:12.955Z,95479.00
2022-11-18T16:05:14.310Z,95464.03
2022-11-18T16:06:15.759Z,95481.13
2022-11-18T16:07:20.792Z,95469.47
2022-11-18T16:08:22.177Z,95473.53
2022-11-18T16:09:23.625Z,95480.59
2022-11-18T16:10:43.612Z,95472.91
2022-11-18T16:12:03.459Z,95478.56
2022-11-18T16:13:04.942Z,95477.59
2022-11-18T16:14:09.164Z,95481.16
2022-11-18T16:15:29.065Z,95475.19
2022-11-18T16:16:31.338Z,95476.97
2022-11-18T16:17:32.709Z,95481.16
2022-11-18T16:18:40.608Z,95436.59
2022-11-18T16:19:43.456Z,95460.91
2022-11-18T16:20:44.930Z,95455.09
2022-11-18T16:21:48.805Z,95487.25
2022-11-18T16:22:51.909Z,95483.59
